sensor_id;sensor_type;location;lat;lon;timestamp;temperature;humidity
4374;DHT22;2201;51.100;6.814;2022-07-23T00:01:10;18.50;98.20
4374;DHT22;2201;51.100;6.814;2022-07-23T00:03:37;18.40;98.20
4374;DHT22;2201;51.100;6.814;2022-07-23T00:06:04;18.40;98.20
4374;DHT22;2201;51.100;6.814;2022-07-23T00:08:33;18.40;98.20
4374;DHT22;2201;51.100;6.814;2022-07-23T00:11:00;18.30;98.20
4374;DHT22;2201;51.100;6.814;2022-07-23T00:13:27;18.30;98.20
4374;DHT22;2201;51.100;6.814;2022-07-23T00:15:54;18.30;98.20
4374;DHT22;2201;51.100;6.814;2022-07-23T00:18:22;18.40;98.20
4374;DHT22;2201;51.100;6.814;2022-07-23T00:20:49;18.40;98.20
4374;DHT22;2201;51.100;6.814;2022-07-23T00:23:16;18.50;98.20
4374;DHT22;2201;51.100;6.814;2022-07-23T00:25:45;18.50;98.20
4374;DHT22;2201;51.100;6.814;2022-07-23T00:28:12;18.40;98.20
4374;DHT22;2201;51.100;6.814;2022-07-23T00:30:39;18.40;98.20
4374;DHT22;2201;51.100;6.814;2022-07-23T00:33:07;18.50;98.20
4374;DHT22;2201;51.100;6.814;2022-07-23T00:35:36;18.50;98.20
4374;DHT22;2201;51.100;6.814;2022-07-23T00:38:06;18.50;98.20
4374;DHT22;2201;51.100;6.814;2022-07-23T00:40:34;18.40;98.20
4374;DHT22;2201;51.100;6.814;2022-07-23T00:43:02;18.30;98.20
4374;DHT22;2201;51.100;6.814;2022-07-23T00:45:31;18.30;98.20
4374;DHT22;2201;51.100;6.814;2022-07-23T00:47:58;18.20;98.20
4374;DHT22;2201;51.100;6.814;2022-07-23T00:50:26;18.20;98.20
4374;DHT22;2201;51.100;6.814;2022-07-23T00:52:53;18.30;98.20
4374;DHT22;2201;51.100;6.814;2022-07-23T00:55:20;18.30;98.20
4374;DHT22;2201;51.100;6.814;2022-07-23T00:57:47;18.30;98.20
4374;DHT22;2201;51.100;6.814;2022-07-23T01:00:16;18.30;98.20
4374;DHT22;2201;51.100;6.814;2022-07-23T01:02:43;18.30;98.20
4374;DHT22;2201;51.100;6.814;2022-07-23T01:05:10;18.30;98.20
4374;DHT22;2201;51.100;6.814;2022-07-23T01:07:37;18.30;98.20
4374;DHT22;2201;51.100;6.814;2022-07-23T01:10:05;18.30;98.20
4374;DHT22;2201;51.100;6.814;2022-07-23T01:12:54;18.30;98.20
4374;DHT22;2201;51.100;6.814;2022-07-23T01:15:23;18.40;98.20
4374;DHT22;2201;51.100;6.814;2022-07-23T01:17:51;18.40;98.20
4374;DHT22;2201;51.100;6.814;2022-07-23T01:20:18;18.40;98.20
4374;DHT22;2201;51.100;6.814;2022-07-23T01:22:47;18.40;98.20
4374;DHT22;2201;51.100;6.814;2022-07-23T01:25:17;18.50;98.20
4374;DHT22;2201;51.100;6.814;2022-07-23T01:27:44;18.50;98.20
4374;DHT22;2201;51.100;6.814;2022-07-23T01:30:14;18.50;98.20
4374;DHT22;2201;51.100;6.814;2022-07-23T01:32:41;18.50;98.20
4374;DHT22;2201;51.100;6.814;2022-07-23T01:35:09;18.50;98.20
4374;DHT22;2201;51.100;6.814;2022-07-23T01:37:39;18.50;98.20
4374;DHT22;2201;51.100;6.814;2022-07-23T01:40:10;18.50;98.20
4374;DHT22;2201;51.100;6.814;2022-07-23T01:42:37;18.50;98.20
4374;DHT22;2201;51.100;6.814;2022-07-23T01:45:05;18.50;98.20
4374;DHT22;2201;51.100;6.814;2022-07-23T01:47:32;18.40;98.20
4374;DHT22;2201;51.100;6.814;2022-07-23T01:49:59;18.40;98.20
4374;DHT22;2201;51.100;6.814;2022-07-23T01:52:27;18.40;98.20
4374;DHT22;2201;51.100;6.814;2022-07-23T01:54:54;18.30;98.20
4374;DHT22;2201;51.100;6.814;2022-07-23T01:57:22;18.30;98.20
4374;DHT22;2201;51.100;6.814;2022-07-23T01:59:49;18.20;98.20
4374;DHT22;2201;51.100;6.814;2022-07-23T02:02:16;18.20;98.20
4374;DHT22;2201;51.100;6.814;2022-07-23T02:04:43;18.10;98.20
4374;DHT22;2201;51.100;6.814;2022-07-23T02:07:11;18.10;98.20
4374;DHT22;2201;51.100;6.814;2022-07-23T02:09:38;18.10;98.20
4374;DHT22;2201;51.100;6.814;2022-07-23T02:12:05;18.00;98.20
4374;DHT22;2201;51.100;6.814;2022-07-23T02:14:33;18.00;98.20
4374;DHT22;2201;51.100;6.814;2022-07-23T02:17:00;18.00;98.20
4374;DHT22;2201;51.100;6.814;2022-07-23T02:19:27;17.90;98.20
4374;DHT22;2201;51.100;6.814;2022-07-23T02:21:55;17.90;98.20
4374;DHT22;2201;51.100;6.814;2022-07-23T02:24:21;17.80;98.20
4374;DHT22;2201;51.100;6.814;2022-07-23T02:26:48;17.80;98.20
4374;DHT22;2201;51.100;6.814;2022-07-23T02:29:15;17.80;98.20
4374;DHT22;2201;51.100;6.814;2022-07-23T02:31:44;17.70;98.20
4374;DHT22;2201;51.100;6.814;2022-07-23T02:34:12;17.70;98.20
4374;DHT22;2201;51.100;6.814;2022-07-23T02:36:39;17.70;98.20
4374;DHT22;2201;51.100;6.814;2022-07-23T02:39:07;17.70;98.20
4374;DHT22;2201;51.100;6.814;2022-07-23T02:41:34;17.70;98.20
4374;DHT22;2201;51.100;6.814;2022-07-23T02:44:01;17.60;98.20
4374;DHT22;2201;51.100;6.814;2022-07-23T02:46:28;17.60;98.20
4374;DHT22;2201;51.100;6.814;2022-07-23T02:48:58;17.60;98.20
4374;DHT22;2201;51.100;6.814;2022-07-23T02:51:25;17.60;98.20
4374;DHT22;2201;51.100;6.814;2022-07-23T02:53:52;17.50;98.20
4374;DHT22;2201;51.100;6.814;2022-07-23T02:56:18;17.50;98.20
4374;DHT22;2201;51.100;6.814;2022-07-23T02:58:45;17.50;98.20
4374;DHT22;2201;51.100;6.814;2022-07-23T03:01:12;17.50;98.20
4374;DHT22;2201;51.100;6.814;2022-07-23T03:03:39;17.50;98.20
4374;DHT22;2201;51.100;6.814;2022-07-23T03:06:08;17.40;98.20
4374;DHT22;2201;51.100;6.814;2022-07-23T03:08:35;17.40;98.20
4374;DHT22;2201;51.100;6.814;2022-07-23T03:11:02;17.40;98.20
4374;DHT22;2201;51.100;6.814;2022-07-23T03:13:29;17.40;98.20
4374;DHT22;2201;51.100;6.814;2022-07-23T03:15:56;17.40;98.20
4374;DHT22;2201;51.100;6.814;2022-07-23T03:18:23;17.30;98.20
4374;DHT22;2201;51.100;6.814;2022-07-23T03:20:50;17.30;98.20
4374;DHT22;2201;51.100;6.814;2022-07-23T03:23:21;17.30;98.20
4374;DHT22;2201;51.100;6.814;2022-07-23T03:25:48;17.30;98.20
4374;DHT22;2201;51.100;6.814;2022-07-23T03:28:15;17.30;98.20
4374;DHT22;2201;51.100;6.814;2022-07-23T03:30:43;17.30;98.20
4374;DHT22;2201;51.100;6.814;2022-07-23T03:33:12;17.20;98.20
4374;DHT22;2201;51.100;6.814;2022-07-23T03:35:42;17.20;98.20
4374;DHT22;2201;51.100;6.814;2022-07-23T03:38:16;17.20;98.20
4374;DHT22;2201;51.100;6.814;2022-07-23T03:40:48;17.20;98.20
4374;DHT22;2201;51.100;6.814;2022-07-23T03:43:17;17.20;98.20
4374;DHT22;2201;51.100;6.814;2022-07-23T03:45:44;17.20;98.20
4374;DHT22;2201;51.100;6.814;2022-07-23T03:48:11;17.20;98.20
4374;DHT22;2201;51.100;6.814;2022-07-23T03:50:38;17.20;98.20
4374;DHT22;2201;51.100;6.814;2022-07-23T03:53:06;17.20;98.20
4374;DHT22;2201;51.100;6.814;2022-07-23T03:55:32;17.20;98.20
4374;DHT22;2201;51.100;6.814;2022-07-23T03:58:01;17.20;98.20
4374;DHT22;2201;51.100;6.814;2022-07-23T04:00:28;17.10;98.20
4374;DHT22;2201;51.100;6.814;2022-07-23T04:02:55;17.10;98.20
4374;DHT22;2201;51.100;6.814;2022-07-23T04:05:23;17.20;98.20
4374;DHT22;2201;51.100;6.814;2022-07-23T04:07:52;17.20;98.20
4374;DHT22;2201;51.100;6.814;2022-07-23T04:10:20;17.10;98.20
4374;DHT22;2201;51.100;6.814;2022-07-23T04:12:47;17.10;98.20
4374;DHT22;2201;51.100;6.814;2022-07-23T04:15:16;17.10;98.20
4374;DHT22;2201;51.100;6.814;2022-07-23T04:17:43;17.10;98.20
4374;DHT22;2201;51.100;6.814;2022-07-23T04:20:11;17.20;98.20
4374;DHT22;2201;51.100;6.814;2022-07-23T04:22:38;17.20;98.20
4374;DHT22;2201;51.100;6.814;2022-07-23T04:25:07;17.20;98.20
4374;DHT22;2201;51.100;6.814;2022-07-23T04:27:34;17.20;98.20
4374;DHT22;2201;51.100;6.814;2022-07-23T04:30:01;17.20;98.20
4374;DHT22;2201;51.100;6.814;2022-07-23T04:32:29;17.20;98.20
4374;DHT22;2201;51.100;6.814;2022-07-23T04:34:57;17.20;98.20
4374;DHT22;2201;51.100;6.814;2022-07-23T04:37:27;17.30;98.20
4374;DHT22;2201;51.100;6.814;2022-07-23T04:39:54;17.30;98.20
4374;DHT22;2201;51.100;6.814;2022-07-23T04:42:21;17.30;98.20
4374;DHT22;2201;51.100;6.814;2022-07-23T04:44:49;17.30;98.20
4374;DHT22;2201;51.100;6.814;2022-07-23T04:47:17;17.30;98.20
4374;DHT22;2201;51.100;6.814;2022-07-23T04:49:46;17.40;98.20
4374;DHT22;2201;51.100;6.814;2022-07-23T04:52:13;17.40;98.20
4374;DHT22;2201;51.100;6.814;2022-07-23T04:54:41;17.40;98.20
4374;DHT22;2201;51.100;6.814;2022-07-23T04:57:09;17.50;98.20
4374;DHT22;2201;51.100;6.814;2022-07-23T04:59:36;17.50;98.20
4374;DHT22;2201;51.100;6.814;2022-07-23T05:02:03;17.60;98.20
4374;DHT22;2201;51.100;6.814;2022-07-23T05:04:31;17.60;98.20
4374;DHT22;2201;51.100;6.814;2022-07-23T05:06:59;17.70;98.20
4374;DHT22;2201;51.100;6.814;2022-07-23T05:09:27;17.80;98.20
4374;DHT22;2201;51.100;6.814;2022-07-23T05:12:00;17.90;98.20
4374;DHT22;2201;51.100;6.814;2022-07-23T05:14:28;18.00;98.20
4374;DHT22;2201;51.100;6.814;2022-07-23T05:16:58;18.10;98.20
4374;DHT22;2201;51.100;6.814;2022-07-23T05:19:25;18.30;98.20
4374;DHT22;2201;51.100;6.814;2022-07-23T05:21:53;18.40;98.20
4374;DHT22;2201;51.100;6.814;2022-07-23T05:24:22;18.50;98.20
4374;DHT22;2201;51.100;6.814;2022-07-23T05:26:49;18.70;98.20
4374;DHT22;2201;51.100;6.814;2022-07-23T05:29:18;18.90;98.20
4374;DHT22;2201;51.100;6.814;2022-07-23T05:31:46;19.00;98.20
4374;DHT22;2201;51.100;6.814;2022-07-23T05:34:14;19.20;98.20
4374;DHT22;2201;51.100;6.814;2022-07-23T05:36:41;19.40;98.20
4374;DHT22;2201;51.100;6.814;2022-07-23T05:39:08;19.40;98.20
4374;DHT22;2201;51.100;6.814;2022-07-23T05:41:38;19.40;98.20
4374;DHT22;2201;51.100;6.814;2022-07-23T05:44:05;19.50;98.20
4374;DHT22;2201;51.100;6.814;2022-07-23T05:46:33;19.60;98.20
4374;DHT22;2201;51.100;6.814;2022-07-23T05:49:00;19.70;98.20
4374;DHT22;2201;51.100;6.814;2022-07-23T05:51:27;19.80;98.20
4374;DHT22;2201;51.100;6.814;2022-07-23T05:53:54;19.80;98.20
4374;DHT22;2201;51.100;6.814;2022-07-23T05:56:22;19.90;98.20
4374;DHT22;2201;51.100;6.814;2022-07-23T05:58:50;20.10;98.20
4374;DHT22;2201;51.100;6.814;2022-07-23T06:01:18;20.20;98.20
4374;DHT22;2201;51.100;6.814;2022-07-23T06:03:45;20.40;98.20
4374;DHT22;2201;51.100;6.814;2022-07-23T06:06:13;20.60;98.20
4374;DHT22;2201;51.100;6.814;2022-07-23T06:08:40;20.90;98.20
4374;DHT22;2201;51.100;6.814;2022-07-23T06:11:07;21.10;98.20
4374;DHT22;2201;51.100;6.814;2022-07-23T06:13:34;21.20;98.20
4374;DHT22;2201;51.100;6.814;2022-07-23T06:16:03;21.40;98.20
4374;DHT22;2201;51.100;6.814;2022-07-23T06:18:31;21.50;98.20
4374;DHT22;2201;51.100;6.814;2022-07-23T06:20:58;21.60;98.20
4374;DHT22;2201;51.100;6.814;2022-07-23T06:23:27;21.80;98.20
4374;DHT22;2201;51.100;6.814;2022-07-23T06:25:58;21.90;98.20
4374;DHT22;2201;51.100;6.814;2022-07-23T06:28:27;22.00;98.20
4374;DHT22;2201;51.100;6.814;2022-07-23T06:30:54;22.00;98.20
4374;DHT22;2201;51.100;6.814;2022-07-23T06:33:23;22.00;98.20
4374;DHT22;2201;51.100;6.814;2022-07-23T06:35:50;22.10;98.20
4374;DHT22;2201;51.100;6.814;2022-07-23T06:38:17;22.10;98.20
4374;DHT22;2201;51.100;6.814;2022-07-23T06:43:26;22.30;98.20
4374;DHT22;2201;51.100;6.814;2022-07-23T06:45:53;22.20;98.20
4374;DHT22;2201;51.100;6.814;2022-07-23T06:48:20;22.20;98.20
4374;DHT22;2201;51.100;6.814;2022-07-23T06:50:49;22.20;98.20
4374;DHT22;2201;51.100;6.814;2022-07-23T06:53:18;22.00;98.20
4374;DHT22;2201;51.100;6.814;2022-07-23T06:55:46;21.90;98.20
4374;DHT22;2201;51.100;6.814;2022-07-23T06:58:14;21.80;98.20
4374;DHT22;2201;51.100;6.814;2022-07-23T07:00:41;21.80;98.20
4374;DHT22;2201;51.100;6.814;2022-07-23T07:03:09;21.80;98.20
4374;DHT22;2201;51.100;6.814;2022-07-23T07:05:36;21.80;98.20
4374;DHT22;2201;51.100;6.814;2022-07-23T07:08:06;21.90;98.20
4374;DHT22;2201;51.100;6.814;2022-07-23T07:10:34;21.80;98.20
4374;DHT22;2201;51.100;6.814;2022-07-23T07:13:07;21.90;98.20
4374;DHT22;2201;51.100;6.814;2022-07-23T07:15:34;22.10;98.20
4374;DHT22;2201;51.100;6.814;2022-07-23T07:18:01;22.40;98.20
4374;DHT22;2201;51.100;6.814;2022-07-23T07:20:29;22.50;98.20
4374;DHT22;2201;51.100;6.814;2022-07-23T07:22:57;22.50;98.20
4374;DHT22;2201;51.100;6.814;2022-07-23T07:25:26;22.50;98.20
4374;DHT22;2201;51.100;6.814;2022-07-23T07:27:53;22.50;98.20
4374;DHT22;2201;51.100;6.814;2022-07-23T07:30:25;22.60;98.20
4374;DHT22;2201;51.100;6.814;2022-07-23T07:32:53;22.60;98.20
4374;DHT22;2201;51.100;6.814;2022-07-23T07:35:20;22.60;98.20
4374;DHT22;2201;51.100;6.814;2022-07-23T07:37:48;22.60;98.20
4374;DHT22;2201;51.100;6.814;2022-07-23T07:40:17;22.50;98.20
4374;DHT22;2201;51.100;6.814;2022-07-23T07:42:47;22.50;98.20
4374;DHT22;2201;51.100;6.814;2022-07-23T07:45:15;22.60;98.20
4374;DHT22;2201;51.100;6.814;2022-07-23T07:47:43;22.80;98.20
4374;DHT22;2201;51.100;6.814;2022-07-23T07:50:10;23.10;98.20
4374;DHT22;2201;51.100;6.814;2022-07-23T07:52:38;23.10;98.20
4374;DHT22;2201;51.100;6.814;2022-07-23T07:55:06;23.30;98.20
4374;DHT22;2201;51.100;6.814;2022-07-23T07:57:34;23.40;98.20
4374;DHT22;2201;51.100;6.814;2022-07-23T08:00:04;23.50;98.10
4374;DHT22;2201;51.100;6.814;2022-07-23T08:02:43;23.70;97.20
4374;DHT22;2201;51.100;6.814;2022-07-23T08:05:11;23.90;95.90
4374;DHT22;2201;51.100;6.814;2022-07-23T08:07:38;24.10;96.50
4374;DHT22;2201;51.100;6.814;2022-07-23T08:10:06;24.10;95.30
4374;DHT22;2201;51.100;6.814;2022-07-23T08:12:41;24.00;94.30
4374;DHT22;2201;51.100;6.814;2022-07-23T08:15:13;23.90;96.50
4374;DHT22;2201;51.100;6.814;2022-07-23T08:17:40;23.90;95.60
4374;DHT22;2201;51.100;6.814;2022-07-23T08:20:09;23.90;94.50
4374;DHT22;2201;51.100;6.814;2022-07-23T08:22:47;23.90;94.70
4374;DHT22;2201;51.100;6.814;2022-07-23T08:25:16;23.80;94.30
4374;DHT22;2201;51.100;6.814;2022-07-23T08:27:43;23.90;95.80
4374;DHT22;2201;51.100;6.814;2022-07-23T08:30:12;24.20;94.00
4374;DHT22;2201;51.100;6.814;2022-07-23T08:32:53;24.50;92.60
4374;DHT22;2201;51.100;6.814;2022-07-23T08:35:26;24.70;93.20
4374;DHT22;2201;51.100;6.814;2022-07-23T08:37:54;24.90;93.90
4374;DHT22;2201;51.100;6.814;2022-07-23T08:40:23;25.00;90.40
4374;DHT22;2201;51.100;6.814;2022-07-23T08:42:54;25.00;90.10
4374;DHT22;2201;51.100;6.814;2022-07-23T08:45:24;25.10;91.20
4374;DHT22;2201;51.100;6.814;2022-07-23T08:47:53;25.30;88.90
4374;DHT22;2201;51.100;6.814;2022-07-23T08:50:22;25.40;88.10
4374;DHT22;2201;51.100;6.814;2022-07-23T08:52:50;25.60;89.20
4374;DHT22;2201;51.100;6.814;2022-07-23T08:55:18;25.90;89.60
4374;DHT22;2201;51.100;6.814;2022-07-23T08:57:48;26.00;87.20
4374;DHT22;2201;51.100;6.814;2022-07-23T09:00:17;26.20;86.60
4374;DHT22;2201;51.100;6.814;2022-07-23T09:02:46;26.30;87.60
4374;DHT22;2201;51.100;6.814;2022-07-23T09:05:15;26.50;86.70
4374;DHT22;2201;51.100;6.814;2022-07-23T09:08:08;26.60;86.50
4374;DHT22;2201;51.100;6.814;2022-07-23T09:10:48;26.80;85.10
4374;DHT22;2201;51.100;6.814;2022-07-23T09:13:40;27.00;84.10
4374;DHT22;2201;51.100;6.814;2022-07-23T09:16:11;27.20;85.90
4374;DHT22;2201;51.100;6.814;2022-07-23T09:18:43;27.20;84.70
4374;DHT22;2201;51.100;6.814;2022-07-23T09:21:21;27.30;81.90
4374;DHT22;2201;51.100;6.814;2022-07-23T09:23:54;27.40;81.30
4374;DHT22;2201;51.100;6.814;2022-07-23T09:26:27;27.40;81.70
4374;DHT22;2201;51.100;6.814;2022-07-23T09:28:59;27.50;82.60
4374;DHT22;2201;51.100;6.814;2022-07-23T09:31:33;27.60;80.50
4374;DHT22;2201;51.100;6.814;2022-07-23T09:34:10;27.70;82.60
4374;DHT22;2201;51.100;6.814;2022-07-23T09:36:37;27.90;81.20
4374;DHT22;2201;51.100;6.814;2022-07-23T09:39:05;27.90;79.30
4374;DHT22;2201;51.100;6.814;2022-07-23T09:41:37;27.90;81.40
4374;DHT22;2201;51.100;6.814;2022-07-23T09:44:13;28.00;79.10
4374;DHT22;2201;51.100;6.814;2022-07-23T09:46:42;28.20;79.30
4374;DHT22;2201;51.100;6.814;2022-07-23T09:49:13;28.40;77.60
4374;DHT22;2201;51.100;6.814;2022-07-23T09:51:53;28.40;76.90
4374;DHT22;2201;51.100;6.814;2022-07-23T09:54:33;28.60;79.70
4374;DHT22;2201;51.100;6.814;2022-07-23T09:57:04;28.70;76.40
4374;DHT22;2201;51.100;6.814;2022-07-23T09:59:39;28.70;75.90
4374;DHT22;2201;51.100;6.814;2022-07-23T10:02:09;28.40;74.20
4374;DHT22;2201;51.100;6.814;2022-07-23T10:04:39;28.40;76.40
4374;DHT22;2201;51.100;6.814;2022-07-23T10:07:08;28.40;77.30
4374;DHT22;2201;51.100;6.814;2022-07-23T10:09:38;28.60;76.70
4374;DHT22;2201;51.100;6.814;2022-07-23T10:12:10;28.80;75.60
4374;DHT22;2201;51.100;6.814;2022-07-23T10:15:06;28.90;74.30
4374;DHT22;2201;51.100;6.814;2022-07-23T10:17:34;29.00;76.70
4374;DHT22;2201;51.100;6.814;2022-07-23T10:20:04;29.20;72.50
4374;DHT22;2201;51.100;6.814;2022-07-23T10:22:35;29.30;72.50
4374;DHT22;2201;51.100;6.814;2022-07-23T10:25:21;29.40;74.70
4374;DHT22;2201;51.100;6.814;2022-07-23T10:28:08;29.50;71.10
4374;DHT22;2201;51.100;6.814;2022-07-23T10:30:48;29.60;71.00
4374;DHT22;2201;51.100;6.814;2022-07-23T10:33:30;29.60;71.50
4374;DHT22;2201;51.100;6.814;2022-07-23T10:36:09;29.70;71.70
4374;DHT22;2201;51.100;6.814;2022-07-23T10:38:47;29.90;71.10
4374;DHT22;2201;51.100;6.814;2022-07-23T10:41:30;30.00;70.40
4374;DHT22;2201;51.100;6.814;2022-07-23T10:44:12;30.20;70.40
4374;DHT22;2201;51.100;6.814;2022-07-23T10:46:57;30.20;70.10
4374;DHT22;2201;51.100;6.814;2022-07-23T10:49:34;30.30;71.00
4374;DHT22;2201;51.100;6.814;2022-07-23T10:52:25;30.50;70.60
4374;DHT22;2201;51.100;6.814;2022-07-23T10:54:55;30.60;70.50
4374;DHT22;2201;51.100;6.814;2022-07-23T10:57:26;30.80;68.30
4374;DHT22;2201;51.100;6.814;2022-07-23T11:00:18;31.00;67.30
4374;DHT22;2201;51.100;6.814;2022-07-23T11:02:52;31.20;67.30
4374;DHT22;2201;51.100;6.814;2022-07-23T11:05:25;31.50;68.00
4374;DHT22;2201;51.100;6.814;2022-07-23T11:08:16;31.50;67.20
4374;DHT22;2201;51.100;6.814;2022-07-23T11:10:48;31.40;65.50
4374;DHT22;2201;51.100;6.814;2022-07-23T11:13:30;31.40;66.70
4374;DHT22;2201;51.100;6.814;2022-07-23T11:16:06;31.40;67.40
4374;DHT22;2201;51.100;6.814;2022-07-23T11:21:46;31.40;66.50
4374;DHT22;2201;51.100;6.814;2022-07-23T11:24:17;31.50;67.90
4374;DHT22;2201;51.100;6.814;2022-07-23T11:26:56;31.50;65.90
4374;DHT22;2201;51.100;6.814;2022-07-23T11:29:42;31.40;66.80
4374;DHT22;2201;51.100;6.814;2022-07-23T11:32:23;31.50;68.00
4374;DHT22;2201;51.100;6.814;2022-07-23T11:34:57;31.50;66.30
4374;DHT22;2201;51.100;6.814;2022-07-23T11:37:32;31.50;65.70
4374;DHT22;2201;51.100;6.814;2022-07-23T11:40:04;31.70;67.40
4374;DHT22;2201;51.100;6.814;2022-07-23T11:42:33;31.60;64.00
4374;DHT22;2201;51.100;6.814;2022-07-23T11:45:00;31.60;64.40
4374;DHT22;2201;51.100;6.814;2022-07-23T11:47:31;31.50;66.20
4374;DHT22;2201;51.100;6.814;2022-07-23T11:50:00;31.60;65.00
4374;DHT22;2201;51.100;6.814;2022-07-23T11:52:28;31.70;64.30
4374;DHT22;2201;51.100;6.814;2022-07-23T11:54:59;31.80;65.50
4374;DHT22;2201;51.100;6.814;2022-07-23T11:57:33;31.80;64.90
4374;DHT22;2201;51.100;6.814;2022-07-23T12:00:05;31.80;64.40
4374;DHT22;2201;51.100;6.814;2022-07-23T12:02:39;31.90;66.10
4374;DHT22;2201;51.100;6.814;2022-07-23T12:05:18;32.10;65.90
4374;DHT22;2201;51.100;6.814;2022-07-23T12:07:46;32.10;65.10
4374;DHT22;2201;51.100;6.814;2022-07-23T12:10:18;32.10;61.90
4374;DHT22;2201;51.100;6.814;2022-07-23T12:12:51;32.20;63.30
4374;DHT22;2201;51.100;6.814;2022-07-23T12:18:10;32.30;62.50
4374;DHT22;2201;51.100;6.814;2022-07-23T12:20:39;32.20;62.20
4374;DHT22;2201;51.100;6.814;2022-07-23T12:23:10;32.10;63.40
4374;DHT22;2201;51.100;6.814;2022-07-23T12:25:40;32.10;64.10
4374;DHT22;2201;51.100;6.814;2022-07-23T12:28:11;31.90;62.70
4374;DHT22;2201;51.100;6.814;2022-07-23T12:30:40;31.90;62.70
4374;DHT22;2201;51.100;6.814;2022-07-23T12:33:14;32.00;63.40
4374;DHT22;2201;51.100;6.814;2022-07-23T12:35:45;32.10;63.80
4374;DHT22;2201;51.100;6.814;2022-07-23T12:38:17;32.20;63.50
4374;DHT22;2201;51.100;6.814;2022-07-23T12:40:46;32.40;62.60
4374;DHT22;2201;51.100;6.814;2022-07-23T12:43:27;32.50;62.70
4374;DHT22;2201;51.100;6.814;2022-07-23T12:46:02;32.40;62.10
4374;DHT22;2201;51.100;6.814;2022-07-23T12:48:36;32.30;62.90
4374;DHT22;2201;51.100;6.814;2022-07-23T12:51:05;32.50;64.00
4374;DHT22;2201;51.100;6.814;2022-07-23T12:53:37;32.50;62.50
4374;DHT22;2201;51.100;6.814;2022-07-23T12:56:09;32.60;63.30
4374;DHT22;2201;51.100;6.814;2022-07-23T12:58:46;32.70;62.20
4374;DHT22;2201;51.100;6.814;2022-07-23T13:01:26;32.80;62.00
4374;DHT22;2201;51.100;6.814;2022-07-23T13:04:01;33.20;61.60
4374;DHT22;2201;51.100;6.814;2022-07-23T13:06:33;33.20;60.30
4374;DHT22;2201;51.100;6.814;2022-07-23T13:09:02;32.90;61.50
4374;DHT22;2201;51.100;6.814;2022-07-23T13:11:30;32.60;62.10
4374;DHT22;2201;51.100;6.814;2022-07-23T13:14:03;32.30;63.80
4374;DHT22;2201;51.100;6.814;2022-07-23T13:16:31;32.20;63.40
4374;DHT22;2201;51.100;6.814;2022-07-23T13:18:59;31.50;62.80
4374;DHT22;2201;51.100;6.814;2022-07-23T13:21:28;31.20;65.40
4374;DHT22;2201;51.100;6.814;2022-07-23T13:24:00;31.20;64.70
4374;DHT22;2201;51.100;6.814;2022-07-23T13:26:28;31.00;64.60
4374;DHT22;2201;51.100;6.814;2022-07-23T13:28:57;30.90;66.30
4374;DHT22;2201;51.100;6.814;2022-07-23T13:31:26;31.00;66.00
4374;DHT22;2201;51.100;6.814;2022-07-23T13:33:56;31.20;64.10
4374;DHT22;2201;51.100;6.814;2022-07-23T13:36:24;31.50;64.30
4374;DHT22;2201;51.100;6.814;2022-07-23T13:38:52;31.50;63.60
4374;DHT22;2201;51.100;6.814;2022-07-23T13:41:19;31.40;62.80
4374;DHT22;2201;51.100;6.814;2022-07-23T13:43:47;31.30;63.80
4374;DHT22;2201;51.100;6.814;2022-07-23T13:46:14;31.50;64.70
4374;DHT22;2201;51.100;6.814;2022-07-23T13:48:45;31.80;64.50
4374;DHT22;2201;51.100;6.814;2022-07-23T13:51:13;32.20;63.50
4374;DHT22;2201;51.100;6.814;2022-07-23T13:53:41;32.30;61.80
4374;DHT22;2201;51.100;6.814;2022-07-23T13:56:09;32.40;61.30
4374;DHT22;2201;51.100;6.814;2022-07-23T13:58:37;32.40;62.10
4374;DHT22;2201;51.100;6.814;2022-07-23T14:01:56;32.30;62.50
4374;DHT22;2201;51.100;6.814;2022-07-23T14:04:30;32.40;63.30
4374;DHT22;2201;51.100;6.814;2022-07-23T14:06:57;32.30;61.00
4374;DHT22;2201;51.100;6.814;2022-07-23T14:09:25;32.40;62.30
4374;DHT22;2201;51.100;6.814;2022-07-23T14:11:52;32.40;61.90
4374;DHT22;2201;51.100;6.814;2022-07-23T14:14:20;32.30;61.80
4374;DHT22;2201;51.100;6.814;2022-07-23T14:16:50;32.30;61.60
4374;DHT22;2201;51.100;6.814;2022-07-23T14:19:17;32.30;63.10
4374;DHT22;2201;51.100;6.814;2022-07-23T14:21:46;32.40;61.20
4374;DHT22;2201;51.100;6.814;2022-07-23T14:24:14;32.40;62.80
4374;DHT22;2201;51.100;6.814;2022-07-23T14:26:41;32.60;62.10
4374;DHT22;2201;51.100;6.814;2022-07-23T14:29:08;32.60;60.90
4374;DHT22;2201;51.100;6.814;2022-07-23T14:31:36;32.70;62.10
4374;DHT22;2201;51.100;6.814;2022-07-23T14:34:03;32.80;61.20
4374;DHT22;2201;51.100;6.814;2022-07-23T14:36:30;32.90;59.00
4374;DHT22;2201;51.100;6.814;2022-07-23T14:39:00;32.80;60.80
4374;DHT22;2201;51.100;6.814;2022-07-23T14:41:27;32.80;61.70
4374;DHT22;2201;51.100;6.814;2022-07-23T14:43:55;32.40;61.10
4374;DHT22;2201;51.100;6.814;2022-07-23T14:46:23;32.30;61.20
4374;DHT22;2201;51.100;6.814;2022-07-23T14:48:50;32.10;62.40
4374;DHT22;2201;51.100;6.814;2022-07-23T14:51:17;32.10;62.00
4374;DHT22;2201;51.100;6.814;2022-07-23T14:53:45;31.90;61.40
4374;DHT22;2201;51.100;6.814;2022-07-23T14:56:13;32.00;61.20
4374;DHT22;2201;51.100;6.814;2022-07-23T14:58:41;32.00;62.10
4374;DHT22;2201;51.100;6.814;2022-07-23T15:01:09;32.00;61.30
4374;DHT22;2201;51.100;6.814;2022-07-23T15:03:36;32.10;60.20
4374;DHT22;2201;51.100;6.814;2022-07-23T15:06:04;32.10;62.50
4374;DHT22;2201;51.100;6.814;2022-07-23T15:08:31;32.30;61.80
4374;DHT22;2201;51.100;6.814;2022-07-23T15:10:58;32.40;61.70
4374;DHT22;2201;51.100;6.814;2022-07-23T15:13:27;32.40;60.80
4374;DHT22;2201;51.100;6.814;2022-07-23T15:15:54;32.40;59.70
4374;DHT22;2201;51.100;6.814;2022-07-23T15:18:22;32.30;60.60
4374;DHT22;2201;51.100;6.814;2022-07-23T15:20:49;32.30;59.10
4374;DHT22;2201;51.100;6.814;2022-07-23T15:23:17;32.20;59.30
4374;DHT22;2201;51.100;6.814;2022-07-23T15:25:44;32.00;60.70
4374;DHT22;2201;51.100;6.814;2022-07-23T15:28:11;32.00;64.90
4374;DHT22;2201;51.100;6.814;2022-07-23T15:30:40;31.80;61.50
4374;DHT22;2201;51.100;6.814;2022-07-23T15:33:07;31.80;62.90
4374;DHT22;2201;51.100;6.814;2022-07-23T15:35:35;31.90;62.80
4374;DHT22;2201;51.100;6.814;2022-07-23T15:38:02;31.90;61.20
4374;DHT22;2201;51.100;6.814;2022-07-23T15:40:29;31.80;61.80
4374;DHT22;2201;51.100;6.814;2022-07-23T15:42:56;31.60;61.30
4374;DHT22;2201;51.100;6.814;2022-07-23T15:45:24;31.30;61.70
4374;DHT22;2201;51.100;6.814;2022-07-23T15:47:53;31.10;61.50
4374;DHT22;2201;51.100;6.814;2022-07-23T15:50:21;30.90;62.70
4374;DHT22;2201;51.100;6.814;2022-07-23T15:52:48;30.80;63.90
4374;DHT22;2201;51.100;6.814;2022-07-23T15:55:16;30.90;63.70
4374;DHT22;2201;51.100;6.814;2022-07-23T15:57:44;30.90;63.40
4374;DHT22;2201;51.100;6.814;2022-07-23T16:00:12;30.90;62.60
4374;DHT22;2201;51.100;6.814;2022-07-23T16:02:39;30.80;63.10
4374;DHT22;2201;51.100;6.814;2022-07-23T16:05:08;30.90;61.60
4374;DHT22;2201;51.100;6.814;2022-07-23T16:07:35;31.00;61.40
4374;DHT22;2201;51.100;6.814;2022-07-23T16:10:04;30.90;62.80
4374;DHT22;2201;51.100;6.814;2022-07-23T16:12:32;31.00;63.20
4374;DHT22;2201;51.100;6.814;2022-07-23T16:14:59;31.10;62.60
4374;DHT22;2201;51.100;6.814;2022-07-23T16:17:28;31.10;61.00
4374;DHT22;2201;51.100;6.814;2022-07-23T16:19:55;31.00;63.10
4374;DHT22;2201;51.100;6.814;2022-07-23T16:22:24;30.80;62.50
4374;DHT22;2201;51.100;6.814;2022-07-23T16:24:59;30.80;62.60
4374;DHT22;2201;51.100;6.814;2022-07-23T16:27:26;30.80;63.70